Terminal Aerodrome Forecast
Issued by NWS Springfield, MO

Home | Current Version | Previous Version | Text Only | Print | Product List | Glossary On
Versions: 1 2 3 4 5 6 7 8 9 10 11 12 13 14 15 16 17 18 19
000
FTUS43 KSGF 201100
TAFSGF
TAF
KSGF 201120Z 2012/2112 15007KT P6SM FEW250
      TEMPO 2012/2013 6SM BR
     FM201500 23010KT P6SM SCT250
     FM210100 23005KT P6SM FEW050 SCT100 BKN250 PROB30 2104/2108 4SM
      -TSRA OVC050CB
     FM210800 30008KT P6SM SCT050 OVC150=

USA.gov is the U.S. government's official web portal to all federal, state and local government web resources and services.